Time;durP1;ratioP1;P1;durP2;ratioP2;P2;SDS_P1;SDS_P2;PMS_P1;PMS_P2;Temp;Humidity;BMP_temperature;BMP_pressure;BME280_temperature;BME280_humidity;BME280_pressure;Samples;Min_cycle;Max_cycle;Signal;HPM_P1;HPM_P2
2021/12/04 00:02:03;;;;;;;;;63.50;51.75;;;;;7.58;79.65;100818.41;5042774;28;11648;-72
2021/12/04 00:05:01;;;;;;;;;72.25;56.25;;;;;7.65;79.81;100834.50;5033030;28;11544;-72
2021/12/04 00:07:57;;;;;;;;;91.00;70.33;;;;;7.63;80.49;100831.25;5033226;28;11560;-72
2021/12/04 00:10:53;;;;;;;;;58.00;44.75;;;;;7.68;80.44;100822.91;5033453;28;8885;-72
2021/12/04 00:13:48;;;;;;;;;81.00;58.67;;;;;7.51;80.75;100834.50;5032929;28;11554;-72
2021/12/04 00:16:44;;;;;;;;;90.50;66.00;;;;;7.50;80.84;100836.44;5034354;28;11561;-72
2021/12/04 00:19:39;;;;;;;;;81.67;62.00;;;;;7.34;81.04;100837.06;5033146;28;11579;-74
2021/12/04 00:22:35;;;;;;;;;85.75;67.50;;;;;7.41;80.71;100841.03;5033296;28;11555;-72
2021/12/04 00:25:31;;;;;;;;;93.67;69.33;;;;;7.58;80.62;100839.59;5032137;28;11549;-72
2021/12/04 00:28:26;;;;;;;;;82.75;62.25;;;;;7.37;80.83;100844.72;5033309;28;12365;-72
2021/12/04 00:31:22;;;;;;;;;85.50;62.75;;;;;7.44;80.72;100854.22;5033338;28;11619;-72
2021/12/04 00:34:21;;;;;;;;;69.50;56.50;;;;;7.37;80.04;100867.56;5032685;28;11550;-71
2021/12/04 00:49:54;;;;;;;;;73.50;57.50;;;;;7.29;79.73;100887.53;5026258;28;12318;-73
2021/12/04 00:52:49;;;;;;;;;63.00;52.25;;;;;6.92;79.43;100882.97;5032527;28;11560;-73
2021/12/04 00:55:45;;;;;;;;;54.75;45.25;;;;;7.11;79.15;100882.88;5032352;28;11536;-73
2021/12/04 00:58:41;;;;;;;;;47.75;42.25;;;;;6.95;79.05;100879.59;5032610;28;11620;-73
2021/12/04 01:01:39;;;;;;;;;42.50;41.00;;;;;6.90;79.00;100882.44;5032552;28;11758;-73
2021/12/04 01:04:34;;;;;;;;;61.25;48.25;;;;;7.01;79.13;100880.34;5031601;28;12319;-73
2021/12/04 01:07:30;;;;;;;;;64.50;51.50;;;;;7.10;78.36;100881.25;5032377;28;12298;-72
2021/12/04 01:10:26;;;;;;;;;63.50;49.00;;;;;7.06;78.51;100889.31;5032603;28;11547;-72
2021/12/04 01:13:21;;;;;;;;;51.25;42.75;;;;;6.68;78.51;100889.41;5032464;28;11624;-72
2021/12/04 01:16:17;;;;;;;;;53.50;42.00;;;;;6.78;79.02;100898.59;5012505;28;11554;-72
2021/12/04 01:19:14;;;;;;;;;65.50;51.00;;;;;6.79;79.56;100895.53;5013559;28;11570;-71
2021/12/04 01:22:10;;;;;;;;;59.50;47.75;;;;;6.86;79.30;100897.91;4994105;28;11578;-73
2021/12/04 01:25:06;;;;;;;;;48.75;43.00;;;;;6.75;79.37;100897.28;5004419;28;11795;-70
2021/12/04 01:28:04;;;;;;;;;55.25;46.25;;;;;6.81;80.10;100901.53;5012543;28;11540;-71
2021/12/04 01:31:00;;;;;;;;;22.25;22.25;;;;;6.67;79.68;100904.28;5012239;28;11612;-71
2021/12/04 01:33:55;;;;;;;;;34.75;33.00;;;;;6.67;79.93;100901.53;5012717;28;12307;-71
2021/12/04 01:36:51;;;;;;;;;29.75;26.25;;;;;6.45;80.86;100904.06;5012287;28;11612;-71
2021/12/04 01:39:47;;;;;;;;;24.50;22.00;;;;;6.62;80.28;100906.28;5012286;28;11561;-71
2021/12/04 01:42:42;;;;;;;;;35.75;32.00;;;;;6.55;80.49;100912.16;4998878;28;11573;-71
2021/12/04 01:45:38;;;;;;;;;31.25;28.00;;;;;6.69;79.19;100909.47;5012110;28;12409;-71
2021/12/04 01:48:33;;;;;;;;;27.50;25.25;;;;;6.56;79.68;100921.19;5012338;28;11562;-71
2021/12/04 01:51:29;;;;;;;;;25.25;23.00;;;;;6.73;78.65;100926.97;5012082;28;12283;-70
2021/12/04 01:54:25;;;;;;;;;18.50;17.25;;;;;6.59;77.80;100940.66;5011351;28;11537;-73
2021/12/04 01:57:22;;;;;;;;;15.50;15.00;;;;;6.60;77.23;100941.50;5013765;28;11568;-72
2021/12/04 02:00:19;;;;;;;;;10.00;10.00;;;;;6.28;77.79;100943.03;5012328;28;11542;-72
2021/12/04 02:03:16;;;;;;;;;13.00;11.50;;;;;6.39;77.72;100963.75;5011604;28;11514;-72
2021/12/04 02:06:13;;;;;;;;;10.75;10.75;;;;;6.68;77.31;100962.81;5011176;28;11581;-72
2021/12/04 02:09:08;;;;;;;;;13.50;9.75;;;;;6.72;76.89;100968.50;5012133;28;11550;-72
2021/12/04 02:12:06;;;;;;;;;13.25;13.00;;;;;6.42;76.48;100970.59;5011744;28;11525;-72
2021/12/04 02:15:03;;;;;;;;;7.00;7.00;;;;;6.24;77.04;100969.47;5011860;28;11518;-73
2021/12/04 02:17:59;;;;;;;;;6.50;6.00;;;;;6.43;76.96;100985.13;5012138;28;11603;-71
2021/12/04 02:20:54;;;;;;;;;9.75;8.50;;;;;6.36;77.68;100983.59;5014986;28;11480;-71
2021/12/04 02:23:50;;;;;;;;;6.25;5.75;;;;;6.20;77.54;100984.06;5031908;28;11509;-71
2021/12/04 02:26:48;;;;;;;;;6.75;6.75;;;;;6.19;79.00;100976.94;5031496;28;11476;-71
2021/12/04 02:29:47;;;;;;;;;9.00;9.00;;;;;6.12;78.92;100980.84;5031834;28;11623;-72
2021/12/04 02:32:43;;;;;;;;;10.25;10.25;;;;;6.07;79.44;100978.19;5035051;28;11549;-71
2021/12/04 02:35:47;;;;;;;;;10.00;10.00;;;;;6.09;80.26;100983.38;5035496;28;11523;-71
2021/12/04 02:38:49;;;;;;;;;12.00;12.00;;;;;6.20;81.14;100984.06;5035280;28;11487;-71
2021/12/04 02:41:44;;;;;;;;;12.50;12.50;;;;;6.07;81.16;100983.69;5034675;28;11553;-71
2021/12/04 02:44:41;;;;;;;;;15.00;15.00;;;;;6.06;81.42;100997.72;5016205;28;12283;-71
2021/12/04 02:47:37;;;;;;;;;20.00;13.00;;;;;6.03;81.49;101009.25;5015424;28;11557;-71
2021/12/04 02:50:34;;;;;;;;;16.25;16.25;;;;;5.97;82.53;101008.50;5015395;28;11508;-72
2021/12/04 02:53:29;;;;;;;;;9.75;9.25;;;;;6.11;82.42;101001.19;5027230;28;11540;-71
2021/12/04 02:56:26;;;;;;;;;13.25;13.25;;;;;6.14;82.10;100994.31;5034927;28;11536;-72
2021/12/04 02:59:21;;;;;;;;;14.25;14.25;;;;;6.04;81.62;100995.25;5034835;28;11540;-71
2021/12/04 03:02:20;;;;;;;;;19.00;17.25;;;;;5.99;81.62;101009.06;5034654;28;11560;-71
2021/12/04 03:05:22;;;;;;;;;15.75;13.75;;;;;5.98;81.25;101012.06;5016632;28;11567;-72
2021/12/04 03:08:18;;;;;;;;;10.50;9.00;;;;;5.75;81.72;100998.03;5016585;28;11669;-71
2021/12/04 03:11:16;;;;;;;;;12.00;10.50;;;;;5.62;82.35;100989.66;5016317;28;11634;-71
2021/12/04 03:14:11;;;;;;;;;12.25;12.25;;;;;5.70;82.21;100983.53;5032925;28;11490;-71
2021/12/04 03:17:08;;;;;;;;;12.75;12.75;;;;;5.69;82.14;100996.44;5034739;28;12319;-71
2021/12/04 03:20:05;;;;;;;;;18.50;18.00;;;;;5.65;83.10;101017.31;5031954;28;11557;-71
2021/12/04 03:23:02;;;;;;;;;19.50;18.50;;;;;5.76;83.11;101037.28;5014583;28;11537;-72
2021/12/04 03:25:59;;;;;;;;;28.00;25.75;;;;;5.93;82.93;101037.66;5014727;28;11522;-72
2021/12/04 03:28:57;;;;;;;;;19.50;19.25;;;;;5.45;83.05;101032.06;5014793;28;12282;-72
2021/12/04 03:41:24;;;;;;;;;30.50;29.50;;;;;5.51;83.14;101033.66;4995326;28;11801;-72
2021/12/04 03:44:20;;;;;;;;;26.25;26.25;;;;;5.48;83.01;101042.47;5013136;28;12387;-71
2021/12/04 03:47:17;;;;;;;;;32.25;31.50;;;;;5.55;82.69;101061.34;5014419;28;11568;-71
2021/12/04 03:50:13;;;;;;;;;17.75;16.75;;;;;5.24;82.40;101069.81;5014228;28;12341;-71
2021/12/04 03:53:08;;;;;;;;;19.25;17.50;;;;;5.21;83.48;101072.28;5015482;28;11569;-71
2021/12/04 03:56:04;;;;;;;;;22.25;21.50;;;;;5.21;83.15;101069.56;5014345;28;11556;-71
2021/12/04 03:59:00;;;;;;;;;16.50;16.50;;;;;5.25;83.14;101076.94;5014110;28;11575;-72
2021/12/04 04:01:55;;;;;;;;;24.25;18.75;;;;;5.26;82.74;101075.81;5013683;28;11569;-72
2021/12/04 04:04:51;;;;;;;;;20.25;18.00;;;;;5.14;82.72;101061.69;5013244;28;11576;-71
2021/12/04 04:07:47;;;;;;;;;26.00;23.25;;;;;5.34;82.33;101055.19;4994439;28;11028;-71
2021/12/04 04:10:43;;;;;;;;;25.25;24.25;;;;;5.12;83.02;101055.63;4995874;28;11568;-71
2021/12/04 04:13:42;;;;;;;;;11.00;11.00;;;;;4.89;83.18;101037.97;5003208;28;11545;-71
2021/12/04 04:16:39;;;;;;;;;13.75;13.75;;;;;5.21;82.65;101059.44;5004828;28;11544;-71
2021/12/04 04:19:35;;;;;;;;;20.00;16.75;;;;;5.11;82.52;101075.94;5011626;28;11629;-71
2021/12/04 04:22:31;;;;;;;;;14.75;13.00;;;;;4.96;83.54;101079.59;5012205;28;11562;-72
2021/12/04 04:25:26;;;;;;;;;16.00;14.75;;;;;5.25;82.24;101082.41;4994323;28;11597;-71
2021/12/04 04:28:22;;;;;;;;;16.75;15.50;;;;;5.06;82.17;101084.22;4994535;28;12336;-71
2021/12/04 04:31:18;;;;;;;;;15.00;15.00;;;;;5.28;81.95;101098.28;4993837;28;11770;-71
2021/12/04 04:34:40;;;;;;;;;12.00;12.00;;;;;5.27;82.68;101091.16;5014488;28;11525;-71
2021/12/04 05:12:51;;;;;;;;;15.50;15.50;;;;;4.95;84.95;101110.03;5012510;28;11537;-71
2021/12/04 05:19:00;;;;;;;;;15.50;14.50;;;;;4.94;85.19;101122.94;5012571;28;12436;-71
2021/12/04 05:21:56;;;;;;;;;17.25;17.25;;;;;4.73;85.45;101121.38;5030759;28;11560;-71
2021/12/04 05:25:08;;;;;;;;;15.00;15.00;;;;;4.64;86.03;101112.94;5013152;28;11527;-71
2021/12/04 05:28:06;;;;;;;;;16.50;15.75;;;;;4.79;86.16;101116.72;5012513;28;11600;-71
2021/12/04 05:31:02;;;;;;;;;15.00;15.00;;;;;4.78;86.26;101132.34;5022428;28;11517;-72
2021/12/04 05:33:58;;;;;;;;;20.25;20.25;;;;;5.06;85.31;101133.56;5032185;28;11486;-71
2021/12/04 05:36:53;;;;;;;;;25.25;25.25;;;;;5.03;85.97;101136.84;5032598;28;11613;-71
2021/12/04 05:39:49;;;;;;;;;23.00;23.00;;;;;4.84;85.74;101144.91;5031920;28;11595;-71
2021/12/04 05:42:45;;;;;;;;;22.00;20.75;;;;;4.94;85.71;101149.53;5030875;28;11520;-71
2021/12/04 05:45:46;;;;;;;;;18.25;17.25;;;;;4.88;85.85;101153.38;5020406;28;11581;-72
2021/12/04 05:58:11;;;;;;;;;19.25;19.25;;;;;4.93;86.10;101173.38;5024857;28;12331;-72
2021/12/04 06:01:07;;;;;;;;;26.25;26.25;;;;;4.90;86.25;101170.34;5031587;28;11594;-71
2021/12/04 06:04:04;;;;;;;;;16.00;15.75;;;;;5.05;85.45;101180.44;5015155;28;11478;-73
2021/12/04 06:07:00;;;;;;;;;9.25;9.25;;;;;4.96;84.74;101180.19;5034232;28;11479;-72
2021/12/04 06:09:56;;;;;;;;;13.50;13.50;;;;;4.93;84.61;101178.84;5037523;28;11451;-72
2021/12/04 06:12:51;;;;;;;;;13.50;13.50;;;;;5.01;84.44;101189.22;5035452;28;12173;-73
2021/12/04 06:15:50;;;;;;;;;12.75;12.75;;;;;5.08;85.07;101190.84;5035771;28;11491;-71
2021/12/04 06:18:52;;;;;;;;;12.25;11.50;;;;;4.99;84.89;101199.66;5035833;28;11567;-72
2021/12/04 06:25:09;;;;;;;;;12.00;12.00;;;;;5.11;84.75;101232.22;5032868;28;11493;-71
2021/12/04 06:28:05;;;;;;;;;14.75;13.75;;;;;4.89;84.57;101249.03;5035887;28;11573;-72
2021/12/04 06:30:42;;;;;;;;;11.00;11.00;;;;;5.15;84.54;101252.50;5036463;28;11566;-72
2021/12/04 06:33:38;;;;;;;;;12.25;10.75;;;;;5.28;83.77;101256.53;5035295;28;12217;-72
2021/12/04 06:36:35;;;;;;;;;14.00;14.00;;;;;5.01;83.74;101265.16;5022127;28;11630;-72
2021/12/04 06:39:31;;;;;;;;;11.25;11.25;;;;;4.82;84.43;101258.63;5035352;28;11600;-73
2021/12/04 06:42:29;;;;;;;;;12.50;12.50;;;;;4.97;85.01;101258.59;5022516;28;12911;-74
2021/12/04 06:45:29;;;;;;;;;13.25;13.25;;;;;5.12;84.64;101264.03;5035344;28;11551;-74
2021/12/04 06:48:57;;;;;;;;;15.00;14.50;;;;;5.26;84.57;101254.09;5022188;28;12277;-73
2021/12/04 06:51:56;;;;;;;;;12.75;12.25;;;;;5.11;84.63;101242.38;5034924;28;11547;-73
2021/12/04 06:55:00;;;;;;;;;20.00;19.50;;;;;5.23;84.83;101227.25;5035627;28;11528;-73
2021/12/04 06:57:56;;;;;;;;;15.25;15.25;;;;;5.02;84.71;101250.38;5034653;28;11561;-72
2021/12/04 07:00:52;;;;;;;;;10.50;10.50;;;;;4.75;84.83;101258.94;5034631;28;11567;-73
2021/12/04 07:03:49;;;;;;;;;16.25;16.25;;;;;4.77;84.65;101253.19;5034562;28;11516;-72
2021/12/04 07:06:47;;;;;;;;;18.50;18.50;;;;;4.79;85.38;101251.00;5034648;28;11562;-72
2021/12/04 07:09:44;;;;;;;;;21.75;20.25;;;;;4.89;85.60;101248.19;5035214;28;11599;-72
2021/12/04 07:12:40;;;;;;;;;18.75;17.75;;;;;5.07;85.62;101228.41;5035190;28;11615;-72
2021/12/04 07:15:35;;;;;;;;;18.25;18.25;;;;;5.07;86.18;101228.41;5033790;28;11584;-73
2021/12/04 07:18:33;;;;;;;;;33.50;33.50;;;;;5.10;86.18;101232.50;5033466;28;11600;-73
2021/12/04 07:21:32;;;;;;;;;20.00;19.75;;;;;5.13;87.11;101227.28;5044754;28;11628;-73
2021/12/04 07:24:29;;;;;;;;;29.50;26.75;;;;;5.11;86.45;101226.75;5015384;28;11625;-73
2021/12/04 07:27:25;;;;;;;;;43.00;40.50;;;;;5.20;86.24;101210.50;5026538;28;11543;-72
2021/12/04 07:30:22;;;;;;;;;28.50;27.75;;;;;5.31;86.42;101217.59;5035107;28;11596;-72
2021/12/04 07:33:19;;;;;;;;;28.50;27.50;;;;;5.33;86.30;101222.78;5034967;28;12332;-73
2021/12/04 07:35:47;;;;;;;;;30.00;27.25;;;;;5.29;86.47;101223.38;5035183;28;11604;-73
2021/12/04 07:38:43;;;;;;;;;25.50;25.50;;;;;5.30;86.14;101215.97;5033191;28;11585;-73
2021/12/04 07:41:10;;;;;;;;;24.25;24.25;;;;;5.39;85.16;101221.69;5034927;28;11590;-73
2021/12/04 07:44:08;;;;;;;;;20.25;20.25;;;;;5.27;85.71;101235.72;5034582;28;11583;-73
2021/12/04 07:47:04;;;;;;;;;24.25;23.25;;;;;5.02;85.41;101242.97;5035666;28;11615;-73
2021/12/04 07:50:01;;;;;;;;;28.25;28.25;;;;;4.94;86.06;101237.22;5034996;28;11658;-73
2021/12/04 07:52:58;;;;;;;;;16.00;13.50;;;;;4.80;86.05;101238.94;5034455;28;11583;-73
2021/12/04 07:55:53;;;;;;;;;13.75;13.00;;;;;4.72;85.92;101238.38;5035859;28;11563;-73
2021/12/04 07:58:49;;;;;;;;;20.50;20.50;;;;;4.80;85.92;101230.69;5035331;28;11615;-73
2021/12/04 08:01:45;;;;;;;;;13.00;13.00;;;;;4.35;86.10;101227.78;5032151;28;11607;-73
2021/12/04 08:04:42;;;;;;;;;11.75;11.75;;;;;4.35;86.27;101219.56;5031328;28;11598;-74
2021/12/04 08:07:38;;;;;;;;;15.75;15.75;;;;;4.34;86.92;101217.13;5036037;28;11672;-74
2021/12/04 08:10:09;;;;;;;;;22.25;21.50;;;;;4.28;87.12;101220.94;5035685;28;11532;-73
2021/12/04 08:13:05;;;;;;;;;20.00;20.00;;;;;4.14;87.32;101223.41;5033859;28;11518;-73
2021/12/04 08:16:00;;;;;;;;;23.25;20.75;;;;;4.18;87.64;101217.13;5034957;28;11595;-74
2021/12/04 08:18:56;;;;;;;;;22.00;21.75;;;;;4.29;87.58;101204.25;5028193;28;11564;-74
2021/12/04 08:21:52;;;;;;;;;27.50;27.50;;;;;4.43;88.22;101193.53;5017606;28;11542;-74
2021/12/04 08:24:48;;;;;;;;;32.25;31.50;;;;;4.46;87.30;101185.59;5013873;28;12405;-73
2021/12/04 08:27:27;;;;;;;;;19.50;16.50;;;;;4.45;87.18;101183.97;5031389;28;12251;-75
2021/12/04 08:30:26;;;;;;;;;23.75;22.75;;;;;4.46;87.32;101180.13;5034764;28;11516;-74
2021/12/04 08:32:56;;;;;;;;;12.75;12.75;;;;;4.32;86.97;101170.03;5016072;28;11528;-75
2021/12/04 08:35:28;;;;;;;;;19.75;19.75;;;;;4.15;86.95;101173.91;5033765;28;11575;-76
2021/12/04 08:37:58;;;;;;;;;26.50;25.75;;;;;4.36;87.19;101160.13;5030464;28;11520;-74
2021/12/04 08:40:36;;;;;;;;;19.25;19.25;;;;;4.36;86.99;101154.66;5023770;28;11566;-75
2021/12/04 08:43:03;;;;;;;;;21.75;20.25;;;;;4.43;87.40;101155.19;5034546;28;11527;-75
2021/12/04 08:45:36;;;;;;;;;19.25;19.25;;;;;4.55;86.74;101141.19;5034579;28;11639;-75
2021/12/04 08:48:04;;;;;;;;;19.50;19.50;;;;;4.55;86.48;101141.19;5033814;28;11651;-75
2021/12/04 08:51:02;;;;;;;;;23.00;23.00;;;;;4.45;87.78;101145.63;5018657;28;11559;-74
2021/12/04 08:53:58;;;;;;;;;22.50;21.75;;;;;4.47;87.33;101129.72;5030240;28;11545;-75
2021/12/04 08:56:54;;;;;;;;;21.75;21.75;;;;;4.58;87.43;101113.22;5013694;28;11643;-75
2021/12/04 08:59:22;;;;;;;;;31.75;27.75;;;;;4.49;86.87;101114.91;5033863;28;12332;-75
2021/12/04 09:02:18;;;;;;;;;19.75;19.75;;;;;4.54;87.01;101117.66;5031969;28;11586;-74
2021/12/04 09:04:46;;;;;;;;;24.50;24.50;;;;;4.58;86.87;101116.78;5032503;28;11545;-75
2021/12/04 09:07:19;;;;;;;;;15.75;15.00;;;;;4.49;87.25;101109.44;5016587;28;11673;-75
2021/12/04 09:09:47;;;;;;;;;18.50;18.50;;;;;4.73;86.83;101113.97;5029135;28;11680;-74
2021/12/04 09:12:29;;;;;;;;;24.25;23.25;;;;;4.84;86.95;101106.56;5029366;28;12382;-74
2021/12/04 09:14:57;;;;;;;;;17.50;17.00;;;;;4.78;86.18;101104.94;5017687;28;11519;-74
2021/12/04 09:17:35;;;;;;;;;18.50;18.50;;;;;4.84;86.41;101109.28;5033248;28;12281;-74
2021/12/04 09:20:05;;;;;;;;;18.75;16.75;;;;;4.94;87.17;101113.88;5032952;28;11575;-75
2021/12/04 09:23:06;;;;;;;;;16.00;16.00;;;;;4.92;86.87;101116.09;5032260;28;11516;-74
2021/12/04 09:26:03;;;;;;;;;13.75;13.75;;;;;5.12;86.92;101123.38;5028024;28;11536;-74
2021/12/04 09:29:12;;;;;;;;;12.50;12.50;;;;;5.18;86.46;101123.06;5028966;28;11688;-76
2021/12/04 09:34:48;;;;;;;;;11.75;11.75;;;;;5.25;85.29;101120.81;5031981;28;11547;-76
2021/12/04 09:40:34;;;;;;;;;112.00;99.50;;;;;6.91;95.29;101112.28;5028158;28;11608;-74
2021/12/04 10:04:29;;;;;;;;;17.00;16.50;;;;;6.77;87.13;101084.72;5030564;28;11557;-76
2021/12/04 10:23:00;;;;;;;;;13.75;13.75;;;;;5.63;84.81;101044.25;5032831;28;12326;-77
2021/12/04 10:34:09;;;;;;;;;15.00;15.00;;;;;5.77;84.18;101042.47;5028199;28;11525;-76
2021/12/04 10:36:40;;;;;;;;;12.75;12.00;;;;;5.66;83.76;101038.16;4996816;28;11520;-76
2021/12/04 10:39:10;;;;;;;;;12.75;12.25;;;;;5.45;83.66;101029.34;5026431;28;12270;-77
2021/12/04 10:41:42;;;;;;;;;10.50;10.50;;;;;5.33;84.26;101031.63;5014464;28;11563;-75
2021/12/04 10:44:27;;;;;;;;;12.50;12.50;;;;;5.34;83.69;101024.22;5013153;28;11542;-75
2021/12/04 10:47:26;;;;;;;;;12.50;12.50;;;;;5.39;83.87;101029.66;5016013;28;11481;-75
2021/12/04 10:55:50;;;;;;;;;32.00;30.50;;;;;5.39;84.57;101038.72;5036530;28;11579;-75
2021/12/04 11:02:02;;;;;;;;;16.00;16.00;;;;;5.17;85.11;101025.44;5035555;28;11560;-75
2021/12/04 11:39:05;;;;;;;;;18.75;18.75;;;;;5.51;84.94;101028.16;5035160;28;11511;-75
2021/12/04 11:45:03;;;;;;;;;31.50;27.50;;;;;5.57;85.58;101026.19;5034480;28;11574;-75
2021/12/04 11:47:11;;;;;;;;;33.25;33.25;;;;;5.56;84.95;101030.03;5027510;28;11904;-75
2021/12/04 11:49:38;;;;;;;;;39.25;38.25;;;;;5.55;84.73;101026.47;5034179;28;12334;-75
2021/12/04 11:52:17;;;;;;;;;33.75;33.75;;;;;5.66;84.73;101032.69;5033891;28;11544;-74
2021/12/04 11:54:48;;;;;;;;;45.00;40.25;;;;;5.64;84.46;101017.63;5034766;28;11555;-74
2021/12/04 11:57:30;;;;;;;;;57.75;47.00;;;;;5.81;83.79;101027.03;5034577;28;11549;-74
2021/12/04 12:00:27;;;;;;;;;31.75;31.75;;;;;5.93;83.47;101032.16;5034660;28;11583;-74
2021/12/04 12:03:10;;;;;;;;;49.50;44.00;;;;;5.85;84.48;101039.09;5032295;28;11561;-74
2021/12/04 12:05:48;;;;;;;;;50.00;44.75;;;;;5.74;84.00;101039.47;5033926;28;12384;-74
2021/12/04 12:08:45;;;;;;;;;52.00;47.25;;;;;5.79;84.62;101031.19;5033446;28;11648;-74
2021/12/04 12:11:20;;;;;;;;;37.50;37.50;;;;;5.84;84.14;101037.44;5033569;28;11903;-74
2021/12/04 12:13:51;;;;;;;;;31.75;31.75;;;;;5.76;84.15;101031.78;5034226;28;12368;-74
2021/12/04 12:16:23;;;;;;;;;49.75;43.75;;;;;5.88;84.45;101036.84;5034141;28;11655;-74
2021/12/04 12:19:07;;;;;;;;;36.75;36.50;;;;;5.75;84.69;101027.38;5037706;28;11680;-74
2021/12/04 12:22:01;;;;;;;;;44.50;40.00;;;;;5.72;84.29;101030.72;5014073;28;11577;-73
2021/12/04 12:37:51;;;;;;;;;70.33;59.00;;;;;5.93;84.03;101031.34;5009894;28;11585;-73
2021/12/04 12:40:28;;;;;;;;;73.25;58.75;;;;;5.93;83.93;101037.66;5034106;28;8876;-74
2021/12/04 12:43:14;;;;;;;;;55.50;47.25;;;;;5.89;84.61;101030.25;5033659;28;11589;-74
2021/12/04 12:45:53;;;;;;;;;46.00;42.50;;;;;5.84;84.94;101040.19;5017486;28;11671;-74
2021/12/04 12:48:54;;;;;;;;;47.25;40.00;;;;;5.82;85.00;101036.91;5032566;28;11568;-72
2021/12/04 12:51:29;;;;;;;;;40.50;39.50;;;;;5.95;85.68;101040.94;5025271;28;11564;-75
2021/12/04 12:53:59;;;;;;;;;38.25;38.00;;;;;5.93;85.79;101045.09;5026270;28;11560;-74
2021/12/04 12:56:57;;;;;;;;;33.00;32.50;;;;;5.82;86.15;101042.41;5033585;28;11568;-75
2021/12/04 13:12:03;;;;;;;;;25.75;25.75;;;;;5.52;85.79;101038.06;5032114;28;11770;-74
2021/12/04 13:14:46;;;;;;;;;22.50;22.25;;;;;5.57;85.46;101037.97;5013642;28;12297;-74
2021/12/04 13:17:31;;;;;;;;;28.25;27.25;;;;;5.59;85.08;101043.19;5023182;28;11591;-75
2021/12/04 13:19:58;;;;;;;;;31.50;31.50;;;;;5.48;85.30;101027.94;5033037;28;11554;-73
2021/12/04 13:22:31;;;;;;;;;23.25;23.25;;;;;5.47;84.99;101026.31;5033019;28;11535;-75
2021/12/04 13:25:04;;;;;;;;;32.75;32.75;;;;;5.42;85.68;101024.41;5032575;28;11562;-74
2021/12/04 13:30:49;;;;;;;;;52.75;46.25;;;;;5.46;85.73;101017.25;5031967;28;11560;-75
2021/12/04 13:33:17;;;;;;;;;40.00;39.75;;;;;5.60;85.04;101009.16;5032643;28;11635;-75
2021/12/04 13:35:46;;;;;;;;;31.75;31.75;;;;;5.50;84.14;101001.03;5032837;28;11587;-75
2021/12/04 13:38:42;;;;;;;;;44.00;40.75;;;;;5.42;84.19;101007.94;5040951;28;11546;-74
2021/12/04 13:41:24;;;;;;;;;38.75;34.25;;;;;5.46;84.57;101010.94;5052089;28;11559;-75
2021/12/04 13:43:55;;;;;;;;;26.75;26.75;;;;;5.25;84.32;101004.81;5014550;28;11592;-75
2021/12/04 13:46:24;;;;;;;;;34.75;34.00;;;;;5.40;84.99;101006.59;5008394;28;11576;-75
2021/12/04 13:48:59;;;;;;;;;35.00;28.00;;;;;5.34;84.49;101018.72;5002360;28;11570;-75
2021/12/04 13:51:41;;;;;;;;;39.50;39.50;;;;;5.33;84.39;101017.09;5032417;28;11576;-75
2021/12/04 13:54:09;;;;;;;;;32.50;26.25;;;;;5.30;84.58;101018.50;5032753;28;11554;-76
2021/12/04 13:57:13;;;;;;;;;52.50;46.50;;;;;5.36;85.27;101020.06;5027104;28;11622;-75
2021/12/04 14:00:13;;;;;;;;;31.25;30.75;;;;;5.29;83.95;101014.94;5032018;28;11702;-76
2021/12/04 14:02:42;;;;;;;;;31.50;30.00;;;;;5.24;83.94;101020.47;5041381;28;11612;-76
2021/12/04 14:05:13;;;;;;;;;51.50;43.00;;;;;5.21;84.44;101017.44;5033564;28;11607;-76
2021/12/04 14:07:49;;;;;;;;;53.75;46.75;;;;;5.13;85.16;101018.88;5020728;28;12435;-76
2021/12/04 14:10:42;;;;;;;;;57.00;49.00;;;;;4.90;86.02;101020.44;5034448;28;11562;-75
2021/12/04 14:13:16;;;;;;;;;57.75;47.75;;;;;5.09;86.18;101008.81;5023907;28;11589;-74
2021/12/04 14:15:46;;;;;;;;;51.25;45.75;;;;;4.99;86.05;101015.19;5027482;28;11662;-74
2021/12/04 14:18:18;;;;;;;;;61.50;49.00;;;;;4.96;86.21;101010.25;5032705;28;11704;-75
2021/12/04 14:20:54;;;;;;;;;50.25;45.50;;;;;4.87;85.74;101018.28;5042665;28;11582;-74
2021/12/04 14:23:27;;;;;;;;;66.75;54.25;;;;;4.93;85.88;101019.06;5021936;28;11574;-76
2021/12/04 14:26:24;;;;;;;;;62.00;51.50;;;;;4.78;86.10;101014.50;5031186;28;11600;-74
2021/12/04 14:29:19;;;;;;;;;43.00;40.50;;;;;4.71;85.52;101014.00;5035804;28;11601;-76
2021/12/04 14:31:48;;;;;;;;;49.25;43.25;;;;;4.78;85.59;101017.25;5038901;28;11536;-74
2021/12/04 14:34:24;;;;;;;;;43.50;39.25;;;;;4.69;85.65;101019.78;5040579;28;11560;-75
2021/12/04 14:37:20;;;;;;;;;15.25;15.25;;;;;4.48;85.81;101012.75;5028622;28;11673;-74
2021/12/04 14:40:06;;;;;;;;;24.50;22.50;;;;;4.29;86.27;101012.56;5036839;28;11527;-74
2021/12/04 14:42:36;;;;;;;;;28.25;25.25;;;;;4.42;86.51;101011.97;5032328;28;11580;-74
2021/12/04 14:45:08;;;;;;;;;22.50;22.50;;;;;4.44;86.69;101007.00;5011065;28;12379;-73
2021/12/04 14:47:45;;;;;;;;;29.25;28.25;;;;;4.33;86.59;101013.66;5032792;28;11529;-75
2021/12/04 14:50:17;;;;;;;;;41.25;40.00;;;;;4.38;87.14;101015.56;5020767;28;11562;-75
2021/12/04 14:52:53;;;;;;;;;48.75;44.75;;;;;4.26;86.75;101018.63;5055496;28;11536;-76
2021/12/04 14:55:27;;;;;;;;;46.50;41.25;;;;;4.28;87.57;101016.41;5038212;28;11669;-75
2021/12/04 14:57:57;;;;;;;;;65.00;48.00;;;;;4.19;87.65;101010.69;5038632;28;12264;-75
2021/12/04 15:00:59;;;;;;;;;58.67;49.67;;;;;4.19;87.05;101012.63;5039718;28;11622;-74
2021/12/04 15:03:32;;;;;;;;;68.00;56.33;;;;;4.45;86.34;101008.69;5043450;28;11655;-75
2021/12/04 15:06:05;;;;;;;;;68.67;55.00;;;;;4.44;86.69;101008.94;5007830;28;11659;-73
2021/12/04 15:08:40;;;;;;;;;40.50;40.50;;;;;4.16;87.23;101010.47;5038509;28;11588;-73
2021/12/04 15:11:09;;;;;;;;;51.00;43.50;;;;;4.17;86.64;101004.69;5037951;28;11548;-73
2021/12/04 15:13:52;;;;;;;;;46.75;40.50;;;;;4.07;87.00;100999.28;5041468;28;11498;-74
2021/12/04 15:16:34;;;;;;;;;45.00;42.00;;;;;4.07;87.29;101001.19;5034834;28;11750;-76
2021/12/04 15:19:19;;;;;;;;;40.00;39.00;;;;;4.10;87.43;100995.16;5021413;28;11686;-74
2021/12/04 15:21:57;;;;;;;;;45.25;41.25;;;;;4.07;87.87;100984.78;5037954;28;11667;-75
2021/12/04 15:24:35;;;;;;;;;40.25;40.25;;;;;4.12;87.52;100985.53;5042723;28;11617;-75
2021/12/04 15:27:12;;;;;;;;;33.75;30.00;;;;;3.98;87.75;100989.97;5040500;28;11676;-75
2021/12/04 15:29:53;;;;;;;;;34.25;34.25;;;;;4.05;88.24;100987.75;5039066;28;11640;-76
2021/12/04 15:32:27;;;;;;;;;25.25;25.25;;;;;4.15;87.68;100982.25;5039884;28;11602;-78
2021/12/04 15:35:15;;;;;;;;;40.50;38.25;;;;;4.12;87.62;100985.53;5042139;28;11553;-75
2021/12/04 15:37:53;;;;;;;;;40.25;37.00;;;;;3.96;87.86;100989.44;5038905;28;11551;-76
2021/12/04 15:40:40;;;;;;;;;55.00;48.75;;;;;4.14;87.40;100988.84;5041844;28;11649;-76
2021/12/04 15:49:53;;;;;;;;;34.25;31.00;;;;;3.68;88.50;100990.06;5042412;28;11572;-75
2021/12/04 15:55:50;;;;;;;;;35.50;34.00;;;;;3.63;89.82;100990.94;5040828;28;11564;-76
2021/12/04 15:58:25;;;;;;;;;52.75;47.00;;;;;3.59;90.13;101001.56;5041472;28;12303;-75
2021/12/04 16:01:27;;;;;;;;;49.67;44.67;;;;;3.56;90.07;100995.84;5030626;28;11549;-77
2021/12/04 16:03:56;;;;;;;;;48.67;42.33;;;;;3.44;90.16;100993.41;5042776;28;12392;-77
2021/12/04 16:06:39;;;;;;;;;51.67;42.00;;;;;3.40;90.84;100997.81;5036373;28;12241;-75
2021/12/04 16:09:08;;;;;;;;;41.75;33.00;;;;;3.29;90.40;101001.63;5035208;28;11538;-76
2021/12/04 16:11:50;;;;;;;;;63.33;50.00;;;;;3.40;90.59;101006.00;5006531;28;11608;-75
2021/12/04 16:14:17;;;;;;;;;57.67;50.00;;;;;3.55;90.59;101005.16;5043859;28;8831;-76
2021/12/04 16:16:45;;;;;;;;;50.33;42.67;;;;;3.49;90.48;101006.25;5042439;28;8856;-76
2021/12/04 16:19:16;;;;;;;;;43.33;29.33;;;;;3.66;90.47;100995.81;5043894;28;11589;-77
2021/12/04 16:22:01;;;;;;;;;31.75;28.25;;;;;3.75;90.02;100999.63;5040686;28;11584;-76
2021/12/04 16:24:32;;;;;;;;;15.50;15.50;;;;;3.76;89.77;100995.00;5029368;28;11588;-77